createdAt,value
2017-07-04T00:00:32.225Z,0
2017-07-04T00:03:03.925Z,0
2017-07-04T00:05:35.654Z,0
2017-07-04T00:08:07.358Z,0
2017-07-04T00:10:39.077Z,0
2017-07-04T00:13:10.763Z,0
2017-07-04T00:15:42.488Z,0
2017-07-04T00:18:14.176Z,0
2017-07-04T00:20:45.883Z,0
2017-07-04T00:23:17.567Z,0
2017-07-04T00:25:49.286Z,0
2017-07-04T00:28:20.971Z,0
2017-07-04T00:30:52.690Z,0
2017-07-04T00:33:24.382Z,0
2017-07-04T00:35:56.097Z,0
2017-07-04T00:38:27.788Z,0
2017-07-04T00:40:59.501Z,0
2017-07-04T00:43:31.206Z,0
2017-07-04T00:46:02.921Z,0
2017-07-04T00:48:34.612Z,0
2017-07-04T00:51:06.328Z,0
2017-07-04T00:53:38.013Z,0
2017-07-04T00:56:09.721Z,0
2017-07-04T00:58:41.403Z,0
2017-07-04T01:01:13.117Z,0
2017-07-04T01:03:44.801Z,0
2017-07-04T01:06:16.518Z,0
2017-07-04T01:08:48.203Z,0
2017-07-04T01:11:19.921Z,0
2017-07-04T01:13:51.613Z,0
2017-07-04T01:16:23.325Z,0
2017-07-04T01:18:55.009Z,0
2017-07-04T01:21:26.726Z,0
2017-07-04T01:23:58.410Z,0
2017-07-04T01:26:30.125Z,0
2017-07-04T01:29:01.815Z,0
2017-07-04T01:31:33.530Z,0
2017-07-04T01:34:05.220Z,0
2017-07-04T01:36:36.943Z,0
2017-07-04T01:39:08.645Z,0
2017-07-04T01:41:40.382Z,0
2017-07-04T01:44:12.076Z,0
2017-07-04T01:46:43.793Z,0
2017-07-04T01:49:15.483Z,0
2017-07-04T01:51:47.196Z,0
2017-07-04T01:54:18.885Z,0
2017-07-04T01:56:50.593Z,0
2017-07-04T01:59:22.287Z,0
2017-07-04T02:01:54.022Z,0
2017-07-04T02:04:25.718Z,0
2017-07-04T02:06:57.441Z,0
2017-07-04T02:09:29.136Z,0
2017-07-04T02:12:00.872Z,0
2017-07-04T02:14:32.563Z,0
2017-07-04T02:17:04.277Z,0
2017-07-04T02:19:35.965Z,0
2017-07-04T02:22:07.686Z,0
2017-07-04T02:24:39.368Z,0
2017-07-04T02:27:11.092Z,0
2017-07-04T02:29:42.795Z,0
2017-07-04T02:32:14.538Z,0
2017-07-04T02:34:46.246Z,0
2017-07-04T02:37:17.988Z,0
2017-07-04T02:39:49.671Z,0
2017-07-04T02:42:21.389Z,0
2017-07-04T02:44:53.072Z,0
2017-07-04T02:47:24.784Z,0
2017-07-04T02:49:56.475Z,0
2017-07-04T02:52:28.203Z,0
2017-07-04T02:54:59.893Z,0
2017-07-04T02:57:31.615Z,0
2017-07-04T03:00:03.300Z,0
2017-07-04T03:02:35.010Z,0
2017-07-04T03:05:06.713Z,0
2017-07-04T03:07:38.432Z,0
2017-07-04T03:10:10.117Z,0
2017-07-04T03:12:41.837Z,0
2017-07-04T03:15:13.539Z,0
2017-07-04T03:17:45.260Z,0
2017-07-04T03:20:16.957Z,0
2017-07-04T03:22:48.672Z,0
2017-07-04T03:25:20.363Z,0
2017-07-04T03:27:52.086Z,0
2017-07-04T03:30:23.784Z,0
2017-07-04T03:32:55.504Z,0
2017-07-04T03:35:27.191Z,0
2017-07-04T03:37:58.915Z,0
2017-07-04T03:40:30.609Z,0
2017-07-04T03:43:02.338Z,0
2017-07-04T03:45:34.031Z,0
2017-07-04T03:48:05.752Z,0
2017-07-04T03:50:37.451Z,0
2017-07-04T03:53:09.169Z,0
2017-07-04T03:55:40.854Z,0
2017-07-04T03:58:12.575Z,0
2017-07-04T04:00:44.278Z,0
2017-07-04T04:03:16.030Z,0
2017-07-04T04:05:47.743Z,5
2017-07-04T04:08:19.478Z,0
2017-07-04T04:10:51.176Z,0
2017-07-04T04:13:22.925Z,0
2017-07-04T04:15:54.604Z,0
2017-07-04T04:18:26.319Z,0
2017-07-04T04:20:58.006Z,5
2017-07-04T04:23:29.723Z,5
2017-07-04T04:26:01.419Z,5
2017-07-04T04:28:33.134Z,10
2017-07-04T04:31:04.827Z,10
2017-07-04T04:33:36.544Z,10
2017-07-04T04:36:08.239Z,10
2017-07-04T04:38:39.977Z,10
2017-07-04T04:41:11.673Z,10
2017-07-04T04:43:43.419Z,10
2017-07-04T04:46:15.109Z,10
2017-07-04T04:48:46.828Z,10
2017-07-04T04:51:18.638Z,10
2017-07-04T04:53:50.361Z,10
2017-07-04T04:56:22.057Z,10
2017-07-04T04:58:53.774Z,10
2017-07-04T05:01:25.469Z,10
2017-07-04T05:03:57.189Z,15
2017-07-04T05:06:28.878Z,15
2017-07-04T05:09:00.602Z,15
2017-07-04T05:11:32.292Z,15
2017-07-04T05:14:04.010Z,15
2017-07-04T05:16:35.699Z,15
2017-07-04T05:19:07.450Z,15
2017-07-04T05:21:39.143Z,15
2017-07-04T05:24:10.867Z,20
2017-07-04T05:26:42.558Z,25
2017-07-04T05:29:14.309Z,25
2017-07-04T05:31:45.999Z,30
2017-07-04T05:34:17.719Z,40
2017-07-04T05:36:49.411Z,50
2017-07-04T05:39:21.131Z,65
2017-07-04T05:41:52.816Z,70
2017-07-04T05:44:24.534Z,75
2017-07-04T05:46:56.229Z,70
2017-07-04T05:49:27.947Z,55
2017-07-04T05:51:59.641Z,55
2017-07-04T05:54:31.364Z,55
2017-07-04T05:57:03.053Z,60
2017-07-04T05:59:34.778Z,65
2017-07-04T06:02:06.471Z,65
2017-07-04T06:04:38.190Z,65
2017-07-04T06:07:09.883Z,70
2017-07-04T06:09:41.610Z,75
2017-07-04T06:12:13.296Z,80
2017-07-04T06:14:45.016Z,90
2017-07-04T06:17:16.705Z,90
2017-07-04T06:19:48.440Z,85
2017-07-04T06:22:20.131Z,90
2017-07-04T06:24:51.853Z,95
2017-07-04T06:27:23.546Z,100
2017-07-04T06:29:55.268Z,105
2017-07-04T06:32:26.964Z,95
2017-07-04T06:34:58.702Z,100
2017-07-04T06:37:30.398Z,100
2017-07-04T06:40:02.134Z,105
2017-07-04T06:42:33.830Z,105
2017-07-04T06:45:05.553Z,95
2017-07-04T06:47:37.248Z,90
2017-07-04T06:50:08.983Z,90
2017-07-04T06:52:40.673Z,100
2017-07-04T06:55:12.404Z,105
2017-07-04T06:57:44.111Z,110
2017-07-04T07:00:15.825Z,115
2017-07-04T07:02:47.516Z,120
2017-07-04T07:05:19.243Z,120
2017-07-04T07:07:50.931Z,120
2017-07-04T07:10:22.654Z,120
2017-07-04T07:12:54.347Z,110
2017-07-04T07:15:26.064Z,90
2017-07-04T07:17:57.765Z,90
2017-07-04T07:20:29.483Z,105
2017-07-04T07:23:01.175Z,110
2017-07-04T07:25:32.900Z,125
2017-07-04T07:28:04.597Z,130
2017-07-04T07:30:36.334Z,125
2017-07-04T07:33:08.036Z,120
2017-07-04T07:35:39.765Z,125
2017-07-04T07:38:11.465Z,125
2017-07-04T07:40:43.210Z,120
2017-07-04T07:43:14.914Z,95
2017-07-04T07:45:46.651Z,90
2017-07-04T07:48:18.354Z,90
2017-07-04T07:50:50.087Z,95
2017-07-04T07:53:21.794Z,95
2017-07-04T07:55:53.527Z,105
2017-07-04T07:58:25.236Z,125
2017-07-04T08:00:56.962Z,125
2017-07-04T08:03:28.669Z,135
2017-07-04T08:06:00.421Z,130
2017-07-04T08:08:32.146Z,125
2017-07-04T08:11:03.877Z,140
2017-07-04T08:13:35.586Z,140
2017-07-04T08:16:07.328Z,130
2017-07-04T08:18:39.026Z,110
2017-07-04T08:21:10.746Z,100
2017-07-04T08:23:42.435Z,90
2017-07-04T08:26:14.163Z,90
2017-07-04T08:28:45.868Z,100
2017-07-04T08:31:17.611Z,105
2017-07-04T08:33:49.313Z,105
2017-07-04T08:36:21.037Z,100
2017-07-04T08:38:52.747Z,100
2017-07-04T08:41:24.481Z,105
2017-07-04T08:43:56.214Z,110
2017-07-04T08:46:27.918Z,115
2017-07-04T08:48:59.611Z,125
2017-07-04T08:51:31.335Z,135
2017-07-04T08:54:03.024Z,140
2017-07-04T08:56:34.760Z,140
2017-07-04T08:59:06.453Z,140
2017-07-04T09:01:38.205Z,140
2017-07-04T09:04:09.900Z,125
2017-07-04T09:06:41.622Z,110
2017-07-04T09:09:13.322Z,115
2017-07-04T09:11:45.052Z,120
2017-07-04T09:14:16.741Z,135
2017-07-04T09:16:48.463Z,140
2017-07-04T09:19:20.154Z,150
2017-07-04T09:21:51.889Z,145
2017-07-04T09:24:23.589Z,135
2017-07-04T09:26:55.337Z,140
2017-07-04T09:29:27.032Z,145
2017-07-04T09:31:58.747Z,145
2017-07-04T09:34:30.440Z,125
2017-07-04T09:37:02.172Z,120
2017-07-04T09:39:33.864Z,120
2017-07-04T09:42:05.601Z,130
2017-07-04T09:44:37.296Z,150
2017-07-04T09:47:09.048Z,145
2017-07-04T09:49:40.749Z,140
2017-07-04T09:52:12.482Z,140
2017-07-04T09:54:44.198Z,135
2017-07-04T09:57:15.941Z,135
2017-07-04T09:59:47.645Z,135
2017-07-04T10:02:19.381Z,140
2017-07-04T10:04:51.075Z,135
2017-07-04T10:07:22.802Z,135
2017-07-04T10:09:54.518Z,140
2017-07-04T10:12:26.257Z,140
2017-07-04T10:14:57.967Z,145
2017-07-04T10:17:29.688Z,150
2017-07-04T10:20:01.386Z,160
2017-07-04T10:22:33.145Z,165
2017-07-04T10:25:04.829Z,165
2017-07-04T10:27:36.555Z,170
2017-07-04T10:30:08.256Z,165
2017-07-04T10:32:39.997Z,160
2017-07-04T10:35:11.695Z,155
2017-07-04T10:37:43.427Z,155
2017-07-04T10:40:15.125Z,155
2017-07-04T10:42:46.875Z,155
2017-07-04T10:45:18.585Z,155
2017-07-04T10:47:50.317Z,150
2017-07-04T10:50:22.011Z,145
2017-07-04T10:52:53.738Z,140
2017-07-04T10:55:25.432Z,145
2017-07-04T10:57:57.163Z,145
2017-07-04T11:00:28.853Z,150
2017-07-04T11:03:00.594Z,145
2017-07-04T11:05:32.285Z,140
2017-07-04T11:08:04.007Z,140
2017-07-04T11:10:35.701Z,135
2017-07-04T11:13:07.433Z,140
2017-07-04T11:15:39.130Z,150
2017-07-04T11:18:10.859Z,150
2017-07-04T11:20:42.559Z,145
2017-07-04T11:23:14.301Z,145
2017-07-04T11:25:46.018Z,155
2017-07-04T11:28:17.749Z,160
2017-07-04T11:30:49.464Z,160
2017-07-04T11:33:21.184Z,160
2017-07-04T11:35:53.090Z,160
2017-07-04T11:38:24.929Z,155
2017-07-04T11:40:56.640Z,155
2017-07-04T11:43:28.376Z,160
2017-07-04T11:46:00.072Z,160
2017-07-04T11:48:31.878Z,155
2017-07-04T11:51:03.672Z,150
2017-07-04T11:53:35.428Z,145
2017-07-04T11:56:07.159Z,150
2017-07-04T11:58:38.933Z,150
2017-07-04T12:01:10.665Z,155
2017-07-04T12:03:43.274Z,165
2017-07-04T12:06:15.024Z,165
2017-07-04T12:08:47.645Z,160
2017-07-04T12:11:20.924Z,150
2017-07-04T12:13:52.910Z,150
2017-07-04T12:16:24.607Z,145
2017-07-04T12:18:56.336Z,150
2017-07-04T12:21:28.748Z,155
2017-07-04T12:24:00.735Z,155
2017-07-04T12:26:32.436Z,155
2017-07-04T12:29:04.198Z,160
2017-07-04T12:31:35.903Z,155
2017-07-04T12:34:07.628Z,155
2017-07-04T12:36:39.440Z,145
2017-07-04T12:39:11.168Z,130
2017-07-04T12:41:43.586Z,135
2017-07-04T12:44:15.574Z,140
2017-07-04T12:46:47.274Z,140
2017-07-04T12:49:19.569Z,150
2017-07-04T12:51:51.807Z,135
2017-07-04T12:54:23.784Z,140
2017-07-04T12:56:56.090Z,135
2017-07-04T12:59:28.102Z,135
2017-07-04T13:01:59.799Z,140
2017-07-04T13:04:31.529Z,155
2017-07-04T13:07:03.683Z,155
2017-07-04T13:09:35.540Z,150
2017-07-04T13:12:07.754Z,150
2017-07-04T13:14:39.506Z,160
2017-07-04T13:17:11.337Z,160
2017-07-04T13:19:43.070Z,160
2017-07-04T13:22:14.883Z,160
2017-07-04T13:24:47.656Z,160
2017-07-04T13:27:19.358Z,160
2017-07-04T13:29:55.108Z,150
2017-07-04T13:32:23.417Z,155
2017-07-04T13:34:56.385Z,155
2017-07-04T13:37:28.116Z,150
2017-07-04T13:40:00.106Z,145
2017-07-04T13:42:32.767Z,140
2017-07-04T13:45:04.810Z,155
2017-07-04T13:47:36.750Z,135
2017-07-04T13:50:08.574Z,135
2017-07-04T13:52:40.272Z,135
2017-07-04T13:55:12.786Z,135
2017-07-04T13:57:44.489Z,135
2017-07-04T14:00:16.329Z,135
2017-07-04T14:02:49.106Z,150
2017-07-04T14:05:20.908Z,155
2017-07-04T14:07:52.604Z,165
2017-07-04T14:10:24.439Z,170
2017-07-04T14:12:56.136Z,155
2017-07-04T14:15:28.021Z,150
2017-07-04T14:17:59.755Z,155
2017-07-04T14:20:31.501Z,140
2017-07-04T14:23:04.725Z,145
2017-07-04T14:25:36.453Z,140
2017-07-04T14:28:08.381Z,140
2017-07-04T14:30:40.122Z,140
2017-07-04T14:33:11.821Z,145
2017-07-04T14:35:43.609Z,140
2017-07-04T14:38:15.250Z,155
2017-07-04T14:40:46.987Z,160
2017-07-04T14:43:18.681Z,140
2017-07-04T14:45:50.403Z,140
2017-07-04T14:48:22.097Z,145
2017-07-04T14:50:53.815Z,145
2017-07-04T14:53:25.511Z,150
2017-07-04T14:55:57.369Z,145
2017-07-04T14:58:29.063Z,140
2017-07-04T15:01:00.791Z,155
2017-07-04T15:03:32.486Z,140
2017-07-04T15:06:04.227Z,145
2017-07-04T15:08:35.921Z,140
2017-07-04T15:11:07.642Z,150
2017-07-04T15:13:39.344Z,155
2017-07-04T15:16:11.064Z,155
2017-07-04T15:18:42.758Z,155
2017-07-04T15:21:14.478Z,165
2017-07-04T15:23:46.168Z,165
2017-07-04T15:26:17.888Z,160
2017-07-04T15:28:49.583Z,160
2017-07-04T15:31:21.312Z,165
2017-07-04T15:33:53.015Z,170
2017-07-04T15:36:24.739Z,170
2017-07-04T15:38:56.434Z,160
2017-07-04T15:41:28.158Z,145
2017-07-04T15:43:59.851Z,140
2017-07-04T15:46:31.578Z,145
2017-07-04T15:49:03.272Z,150
2017-07-04T15:51:35.001Z,150
2017-07-04T15:54:06.698Z,155
2017-07-04T15:56:38.425Z,155
2017-07-04T15:59:10.116Z,160
2017-07-04T16:01:41.835Z,155
2017-07-04T16:04:13.530Z,155
2017-07-04T16:06:45.255Z,155
2017-07-04T16:09:16.946Z,140
2017-07-04T16:11:48.676Z,145
2017-07-04T16:14:20.370Z,160
2017-07-04T16:16:52.085Z,160
2017-07-04T16:19:23.777Z,175
2017-07-04T16:21:55.494Z,175
2017-07-04T16:24:27.193Z,175
2017-07-04T16:26:58.932Z,170
2017-07-04T16:29:30.623Z,175
2017-07-04T16:32:02.346Z,180
2017-07-04T16:34:34.038Z,180
2017-07-04T16:37:05.758Z,175
2017-07-04T16:39:37.451Z,170
2017-07-04T16:42:09.178Z,160
2017-07-04T16:44:40.885Z,145
2017-07-04T16:47:13.369Z,160
2017-07-04T16:49:45.065Z,175
2017-07-04T16:52:16.793Z,170
2017-07-04T16:54:48.493Z,175
2017-07-04T16:57:20.225Z,175
2017-07-04T16:59:51.933Z,170
2017-07-04T17:02:23.686Z,170
2017-07-04T17:04:55.469Z,175
2017-07-04T17:07:27.199Z,170
2017-07-04T17:09:58.917Z,170
2017-07-04T17:12:31.152Z,170
2017-07-04T17:15:03.003Z,165
2017-07-04T17:17:35.135Z,145
2017-07-04T17:20:06.838Z,140
2017-07-04T17:22:38.583Z,145
2017-07-04T17:25:10.287Z,145
2017-07-04T17:27:42.019Z,150
2017-07-04T17:30:13.742Z,145
2017-07-04T17:32:45.477Z,140
2017-07-04T17:35:17.173Z,160
2017-07-04T17:37:48.908Z,165
2017-07-04T17:40:20.605Z,175
2017-07-04T17:42:52.560Z,175
2017-07-04T17:45:24.565Z,180
2017-07-04T17:47:56.283Z,180
2017-07-04T17:50:27.993Z,175
2017-07-04T17:52:59.718Z,145
2017-07-04T17:55:31.424Z,135
2017-07-04T17:58:04.232Z,135
2017-07-04T18:00:36.663Z,135
2017-07-04T18:03:08.396Z,135
2017-07-04T18:05:40.106Z,135
2017-07-04T18:08:11.834Z,150
2017-07-04T18:10:43.534Z,130
2017-07-04T18:13:15.260Z,105
2017-07-04T18:15:46.996Z,105
2017-07-04T18:18:18.727Z,90
2017-07-04T18:20:50.428Z,90
2017-07-04T18:23:22.155Z,105
2017-07-04T18:25:53.849Z,95
2017-07-04T18:28:25.574Z,95
2017-07-04T18:30:57.274Z,95
2017-07-04T18:33:28.995Z,85
2017-07-04T18:36:01.691Z,85
2017-07-04T18:38:33.500Z,75
2017-07-04T18:41:08.245Z,80
2017-07-04T18:43:41.959Z,85
2017-07-04T18:46:15.959Z,90
2017-07-04T18:48:49.314Z,165
2017-07-04T18:51:22.195Z,125
2017-07-04T18:53:54.518Z,85
2017-07-04T18:56:27.810Z,100
2017-07-04T18:58:59.721Z,85
2017-07-04T19:01:31.425Z,75
2017-07-04T19:04:03.151Z,60
2017-07-04T19:06:35.869Z,50
2017-07-04T19:09:10.089Z,40
2017-07-04T19:11:42.136Z,30
2017-07-04T19:14:13.864Z,25
2017-07-04T19:16:45.619Z,25
2017-07-04T19:19:18.455Z,25
2017-07-04T19:21:50.217Z,20
2017-07-04T19:24:22.509Z,20
2017-07-04T19:26:54.213Z,15
2017-07-04T19:29:25.947Z,15
2017-07-04T19:31:57.642Z,10
2017-07-04T19:34:30.230Z,10
2017-07-04T19:37:01.952Z,10
2017-07-04T19:39:33.705Z,5
2017-07-04T19:42:06.010Z,5
2017-07-04T19:44:37.737Z,5
2017-07-04T19:47:09.419Z,0
2017-07-04T19:49:41.266Z,0
2017-07-04T19:52:12.956Z,0
2017-07-04T19:54:44.688Z,0
2017-07-04T19:57:16.489Z,0
2017-07-04T19:59:48.211Z,0
2017-07-04T20:02:19.900Z,0
2017-07-04T20:04:52.452Z,0
2017-07-04T20:07:24.143Z,0
2017-07-04T20:09:55.862Z,0
2017-07-04T20:12:27.548Z,0
2017-07-04T20:14:59.321Z,0
2017-07-04T20:17:31.012Z,0
2017-07-04T20:20:02.732Z,0
2017-07-04T20:22:34.476Z,0
2017-07-04T20:25:06.262Z,0
2017-07-04T20:27:37.971Z,0
2017-07-04T20:30:09.702Z,0
2017-07-04T20:32:41.427Z,0
2017-07-04T20:35:13.892Z,0
2017-07-04T20:37:45.602Z,0
2017-07-04T20:40:17.335Z,0
2017-07-04T20:42:49.043Z,0
2017-07-04T20:45:20.788Z,0
2017-07-04T20:47:52.531Z,0
2017-07-04T20:50:24.261Z,0
2017-07-04T20:52:55.970Z,0
2017-07-04T20:55:27.710Z,0
2017-07-04T20:57:59.399Z,0
2017-07-04T21:00:31.121Z,0
2017-07-04T21:03:02.828Z,0
2017-07-04T21:05:34.544Z,0
2017-07-04T21:08:06.238Z,0
2017-07-04T21:10:37.962Z,5
2017-07-04T21:13:09.653Z,5
2017-07-04T21:15:41.371Z,5
2017-07-04T21:18:13.061Z,5
2017-07-04T21:20:44.793Z,5
2017-07-04T21:23:16.477Z,5
2017-07-04T21:25:48.210Z,5
2017-07-04T21:28:19.907Z,5
2017-07-04T21:30:51.644Z,5
2017-07-04T21:33:23.336Z,5
2017-07-04T21:35:55.066Z,5
2017-07-04T21:38:26.760Z,5
2017-07-04T21:40:58.494Z,5
2017-07-04T21:43:30.189Z,5
2017-07-04T21:46:01.918Z,5
2017-07-04T21:48:33.608Z,0
2017-07-04T21:51:05.328Z,0
2017-07-04T21:53:37.065Z,0
2017-07-04T21:56:08.824Z,0
2017-07-04T21:58:40.512Z,0
2017-07-04T22:01:12.241Z,0
2017-07-04T22:03:43.979Z,0
2017-07-04T22:06:15.800Z,0
2017-07-04T22:08:47.500Z,0
2017-07-04T22:11:19.233Z,0
2017-07-04T22:13:50.931Z,0
2017-07-04T22:16:22.646Z,0
2017-07-04T22:18:54.341Z,0
2017-07-04T22:21:26.063Z,0
2017-07-04T22:23:57.758Z,0
2017-07-04T22:26:29.478Z,0
2017-07-04T22:29:01.181Z,0
2017-07-04T22:31:32.904Z,0
2017-07-04T22:34:04.597Z,0
2017-07-04T22:36:36.320Z,0
2017-07-04T22:39:08.012Z,0
2017-07-04T22:41:39.740Z,0
2017-07-04T22:44:11.428Z,0
2017-07-04T22:46:43.140Z,0
2017-07-04T22:49:14.826Z,0
2017-07-04T22:51:46.543Z,0
2017-07-04T22:54:18.230Z,0
2017-07-04T22:56:49.953Z,0
2017-07-04T22:59:21.650Z,0
2017-07-04T23:01:53.367Z,0
2017-07-04T23:04:25.055Z,0
2017-07-04T23:06:56.775Z,0
2017-07-04T23:09:28.476Z,0
2017-07-04T23:12:00.202Z,0
2017-07-04T23:14:31.892Z,0
2017-07-04T23:17:03.612Z,0
2017-07-04T23:19:35.302Z,0
2017-07-04T23:22:07.025Z,0
2017-07-04T23:24:38.721Z,0
2017-07-04T23:27:10.453Z,0
2017-07-04T23:29:42.148Z,0
2017-07-04T23:32:13.883Z,0
2017-07-04T23:34:45.587Z,0
2017-07-04T23:37:17.299Z,0
2017-07-04T23:39:48.995Z,0
2017-07-04T23:42:20.714Z,0
2017-07-04T23:44:52.405Z,0
2017-07-04T23:47:24.132Z,0
2017-07-04T23:49:55.829Z,0
2017-07-04T23:52:27.549Z,0
2017-07-04T23:54:59.255Z,0
2017-07-04T23:57:30.995Z,0
